createdAt,value
2023-09-23T00:00:53.672Z,11.91
2023-09-23T00:03:20.246Z,11.90
2023-09-23T00:05:46.748Z,11.87
2023-09-23T00:08:13.369Z,11.86
2023-09-23T00:10:40.063Z,11.83
2023-09-23T00:13:06.761Z,11.79
2023-09-23T00:15:33.494Z,11.79
2023-09-23T00:18:01.340Z,11.79
2023-09-23T00:20:27.996Z,11.78
2023-09-23T00:22:54.663Z,11.74
2023-09-23T00:25:22.971Z,11.71
2023-09-23T00:27:49.576Z,11.68
2023-09-23T00:30:16.321Z,11.63
2023-09-23T00:32:42.985Z,11.59
2023-09-23T00:35:11.244Z,11.59
2023-09-23T00:37:37.783Z,11.55
2023-09-23T00:40:05.155Z,11.51
2023-09-23T00:42:31.851Z,11.50
2023-09-23T00:44:58.431Z,11.50
2023-09-23T00:47:24.953Z,11.52
2023-09-23T00:49:51.520Z,11.52
2023-09-23T00:52:19.687Z,11.51
2023-09-23T00:54:46.540Z,11.51
2023-09-23T00:57:14.008Z,11.51
2023-09-23T00:59:40.546Z,11.51
2023-09-23T01:02:07.650Z,11.50
2023-09-23T01:04:34.301Z,11.50
2023-09-23T01:07:01.107Z,11.48
2023-09-23T01:09:29.225Z,11.44
2023-09-23T01:11:55.741Z,11.41
2023-09-23T01:14:22.272Z,11.40
2023-09-23T01:16:49.510Z,11.37
2023-09-23T01:19:16.275Z,11.38
2023-09-23T01:21:42.778Z,11.37
2023-09-23T01:24:10.636Z,11.36
2023-09-23T01:26:37.187Z,11.37
2023-09-23T01:29:03.977Z,11.37
2023-09-23T01:31:30.627Z,11.38
2023-09-23T01:33:57.331Z,11.38
2023-09-23T01:36:23.951Z,11.38
2023-09-23T01:38:50.468Z,11.37
2023-09-23T01:41:18.466Z,11.38
2023-09-23T01:43:46.057Z,11.39
2023-09-23T01:46:12.761Z,11.41
2023-09-23T01:48:39.248Z,11.40
2023-09-23T01:51:05.805Z,11.41
2023-09-23T01:53:32.337Z,11.39
2023-09-23T01:55:58.920Z,11.39
2023-09-23T01:58:26.772Z,11.40
2023-09-23T02:00:53.380Z,11.40
2023-09-23T02:03:20.100Z,11.40
2023-09-23T02:05:47.530Z,11.40
2023-09-23T02:08:14.048Z,11.38
2023-09-23T02:10:44.371Z,11.39
2023-09-23T02:13:10.950Z,11.38
2023-09-23T02:15:38.840Z,11.37
2023-09-23T02:18:05.681Z,11.37
2023-09-23T02:20:32.284Z,11.38
2023-09-23T02:22:58.821Z,11.36
2023-09-23T02:25:25.344Z,11.35
2023-09-23T02:27:52.197Z,11.31
2023-09-23T02:30:19.120Z,11.32
2023-09-23T02:32:48.062Z,11.32
2023-09-23T02:35:16.883Z,11.30
2023-09-23T02:37:44.947Z,11.28
2023-09-23T02:40:11.919Z,11.29
2023-09-23T02:42:39.721Z,11.29
2023-09-23T02:45:07.401Z,11.29
2023-09-23T02:47:34.044Z,11.27
2023-09-23T02:50:02.029Z,11.27
2023-09-23T02:52:28.561Z,11.27
2023-09-23T02:54:55.077Z,11.26
2023-09-23T02:57:21.677Z,11.26
2023-09-23T02:59:48.173Z,11.28
2023-09-23T03:02:14.794Z,11.28
2023-09-23T03:04:41.363Z,11.25
2023-09-23T03:07:09.306Z,11.27
2023-09-23T03:09:35.857Z,11.27
2023-09-23T03:12:02.512Z,11.25
2023-09-23T03:14:30.437Z,11.24
2023-09-23T03:16:57.302Z,11.28
2023-09-23T03:19:24.981Z,11.25
2023-09-23T03:21:51.892Z,11.23
2023-09-23T03:24:20.037Z,11.25
2023-09-23T03:26:46.514Z,11.23
2023-09-23T03:29:13.711Z,11.23
2023-09-23T03:31:40.648Z,11.21
2023-09-23T03:34:07.297Z,11.20
2023-09-23T03:36:33.776Z,11.20
2023-09-23T03:39:00.244Z,11.19
2023-09-23T03:41:28.449Z,11.18
2023-09-23T03:43:54.957Z,11.17
2023-09-23T03:46:21.574Z,11.17
2023-09-23T03:48:48.419Z,11.15
2023-09-23T03:51:15.121Z,11.15
2023-09-23T03:53:41.807Z,11.14
2023-09-23T03:56:08.364Z,11.13
2023-09-23T03:58:36.320Z,11.13
2023-09-23T04:01:03.069Z,11.12
2023-09-23T04:03:29.806Z,11.14
2023-09-23T04:05:56.847Z,11.13
2023-09-23T04:08:23.483Z,11.10
2023-09-23T04:10:50.399Z,11.10
2023-09-23T04:13:17.302Z,11.08
2023-09-23T04:15:45.335Z,11.09
2023-09-23T04:18:11.939Z,11.06
2023-09-23T04:20:38.561Z,11.05
2023-09-23T04:23:05.311Z,11.03
2023-09-23T04:25:32.051Z,11.03
2023-09-23T04:27:58.652Z,11.02
2023-09-23T04:30:25.543Z,11.01
2023-09-23T04:32:53.649Z,11.01
2023-09-23T04:35:20.497Z,11.00
2023-09-23T04:37:47.225Z,11.00
2023-09-23T04:40:14.644Z,11.00
2023-09-23T04:42:43.177Z,10.99
2023-09-23T04:45:10.956Z,10.99
2023-09-23T04:47:38.240Z,10.99
2023-09-23T04:50:07.748Z,10.98
2023-09-23T04:52:34.894Z,10.96
2023-09-23T04:55:01.918Z,10.95
2023-09-23T04:57:28.544Z,10.98
2023-09-23T04:59:55.100Z,10.95
2023-09-23T05:02:21.887Z,10.93
2023-09-23T05:04:48.541Z,10.93
2023-09-23T05:07:16.640Z,10.92
2023-09-23T05:09:43.294Z,10.90
2023-09-23T05:12:09.771Z,10.89
2023-09-23T05:14:36.556Z,10.87
2023-09-23T05:17:03.570Z,10.88
2023-09-23T05:19:30.066Z,10.88
2023-09-23T05:21:56.588Z,10.88
2023-09-23T05:24:24.417Z,10.86
2023-09-23T05:26:50.879Z,10.87
2023-09-23T05:29:17.463Z,10.86
2023-09-23T05:31:44.028Z,10.87
2023-09-23T05:34:10.563Z,10.87
2023-09-23T05:36:37.058Z,10.89
2023-09-23T05:39:03.613Z,10.87
2023-09-23T05:41:31.463Z,10.86
2023-09-23T05:43:57.991Z,10.87
2023-09-23T05:46:24.793Z,10.86
2023-09-23T05:48:51.284Z,10.88
2023-09-23T05:51:18.001Z,10.90
2023-09-23T05:53:45.160Z,10.92
2023-09-23T05:56:12.101Z,10.94
2023-09-23T05:58:40.031Z,10.95
2023-09-23T06:01:06.596Z,10.99
2023-09-23T06:03:33.220Z,11.00
2023-09-23T06:05:59.836Z,11.03
2023-09-23T06:08:26.410Z,11.04
2023-09-23T06:10:53.014Z,11.06
2023-09-23T06:13:19.493Z,11.09
2023-09-23T06:15:47.368Z,11.12
2023-09-23T06:18:13.911Z,11.12
2023-09-23T06:20:40.498Z,11.12
2023-09-23T06:23:07.133Z,11.16
2023-09-23T06:25:33.723Z,11.19
2023-09-23T06:28:00.412Z,11.21
2023-09-23T06:30:27.803Z,11.24
2023-09-23T06:32:55.810Z,11.27
2023-09-23T06:35:22.377Z,11.30
2023-09-23T06:37:48.923Z,11.36
2023-09-23T06:40:15.588Z,11.39
2023-09-23T06:42:42.120Z,11.44
2023-09-23T06:45:09.349Z,11.50
2023-09-23T06:47:36.306Z,11.53
2023-09-23T06:50:04.716Z,11.57
2023-09-23T06:52:31.300Z,11.59
2023-09-23T06:54:57.781Z,11.64
2023-09-23T06:57:24.372Z,11.67
2023-09-23T06:59:50.907Z,11.70
2023-09-23T07:02:17.519Z,11.77
2023-09-23T07:04:44.128Z,11.82
2023-09-23T07:07:11.991Z,11.85
2023-09-23T07:09:38.633Z,11.87
2023-09-23T07:12:05.540Z,11.89
2023-09-23T07:14:32.170Z,11.94
2023-09-23T07:16:58.856Z,11.99
2023-09-23T07:19:25.331Z,12.04
2023-09-23T07:21:51.844Z,12.08
2023-09-23T07:24:19.735Z,12.13
2023-09-23T07:26:46.273Z,12.20
2023-09-23T07:29:12.946Z,12.24
2023-09-23T07:31:39.591Z,12.25
2023-09-23T07:34:06.193Z,12.30
2023-09-23T07:36:32.781Z,12.35
2023-09-23T07:38:59.298Z,12.37
2023-09-23T07:41:27.231Z,12.40
2023-09-23T07:43:53.930Z,12.47
2023-09-23T07:46:20.602Z,12.51
2023-09-23T07:48:47.279Z,12.57
2023-09-23T07:51:13.774Z,12.62
2023-09-23T07:53:40.301Z,12.69
2023-09-23T07:56:06.893Z,12.76
2023-09-23T07:58:34.848Z,12.82
2023-09-23T08:01:01.344Z,12.88
2023-09-23T08:03:27.993Z,12.89
2023-09-23T08:05:54.860Z,12.94
2023-09-23T08:08:21.525Z,13.01
2023-09-23T08:10:48.110Z,13.09
2023-09-23T08:13:14.593Z,13.16
2023-09-23T08:15:42.478Z,13.21
2023-09-23T08:18:09.024Z,13.31
2023-09-23T08:20:35.638Z,13.39
2023-09-23T08:23:02.273Z,13.48
2023-09-23T08:25:28.795Z,13.58
2023-09-23T08:27:55.514Z,13.65
2023-09-23T08:30:22.220Z,13.71
2023-09-23T08:32:50.521Z,13.77
2023-09-23T08:35:17.380Z,13.80
2023-09-23T08:37:43.923Z,13.84
2023-09-23T08:40:12.130Z,13.87
2023-09-23T08:42:39.403Z,13.91
2023-09-23T08:45:07.857Z,13.94
2023-09-23T08:47:36.032Z,13.97
2023-09-23T08:50:05.090Z,14.00
2023-09-23T08:52:32.002Z,14.06
2023-09-23T08:54:58.696Z,14.14
2023-09-23T08:57:25.428Z,14.19
2023-09-23T08:59:51.937Z,14.24
2023-09-23T09:02:22.841Z,14.29
2023-09-23T09:04:52.789Z,14.34
2023-09-23T09:07:20.631Z,14.39
2023-09-23T09:09:47.172Z,14.42
2023-09-23T09:12:13.714Z,14.47
2023-09-23T09:14:40.443Z,14.51
2023-09-23T09:17:07.331Z,14.53
2023-09-23T09:19:33.848Z,14.53
2023-09-23T09:22:00.885Z,14.56
2023-09-23T09:24:30.777Z,14.60
2023-09-23T09:26:57.271Z,14.64
2023-09-23T09:29:24.015Z,14.70
2023-09-23T09:31:51.122Z,14.78
2023-09-23T09:34:24.477Z,14.84
2023-09-23T09:36:56.186Z,15.02
2023-09-23T09:39:27.205Z,15.15
2023-09-23T09:41:57.994Z,15.24
2023-09-23T09:44:27.489Z,15.28
2023-09-23T09:46:55.269Z,15.32
2023-09-23T09:49:22.259Z,15.32
2023-09-23T09:51:50.315Z,15.29
2023-09-23T09:54:18.751Z,15.29
2023-09-23T09:56:46.140Z,15.28
2023-09-23T09:59:22.905Z,15.25
2023-09-23T10:01:51.244Z,15.24
2023-09-23T10:04:19.377Z,15.23
2023-09-23T10:06:53.862Z,15.25
2023-09-23T10:09:26.558Z,15.21
2023-09-23T10:11:53.944Z,15.23
2023-09-23T10:14:22.411Z,15.24
2023-09-23T10:16:49.664Z,15.27
2023-09-23T10:19:16.821Z,15.30
2023-09-23T10:21:45.956Z,15.33
2023-09-23T10:24:20.368Z,15.32
2023-09-23T10:26:47.025Z,15.32
2023-09-23T10:29:14.776Z,15.34
2023-09-23T10:31:42.698Z,15.34
2023-09-23T10:34:09.443Z,15.39
2023-09-23T10:36:36.117Z,15.40
2023-09-23T10:39:03.554Z,15.41
2023-09-23T10:41:33.494Z,15.47
2023-09-23T10:44:00.775Z,15.56
2023-09-23T10:46:27.352Z,15.61
2023-09-23T10:48:55.273Z,15.60
2023-09-23T10:51:22.312Z,15.57
2023-09-23T10:53:49.266Z,15.55
2023-09-23T10:56:15.786Z,15.61
2023-09-23T10:58:43.037Z,15.66
2023-09-23T11:01:09.581Z,15.74
2023-09-23T11:03:39.568Z,15.79
2023-09-23T11:06:08.329Z,15.82
2023-09-23T11:08:35.310Z,15.86
2023-09-23T11:11:01.828Z,16.00
2023-09-23T11:13:28.420Z,16.14
2023-09-23T11:15:54.920Z,16.29
2023-09-23T11:18:21.489Z,16.33
2023-09-23T11:20:48.620Z,16.33
2023-09-23T11:23:16.644Z,16.31
2023-09-23T11:25:44.789Z,16.30
2023-09-23T11:28:16.237Z,16.22
2023-09-23T11:30:42.849Z,16.11
2023-09-23T11:33:11.145Z,16.00
2023-09-23T11:35:37.724Z,15.95
2023-09-23T11:38:04.801Z,15.90
2023-09-23T11:40:33.317Z,15.88
2023-09-23T11:42:59.866Z,15.92
2023-09-23T11:45:26.416Z,16.03
2023-09-23T11:47:53.080Z,16.17
2023-09-23T11:50:19.714Z,16.35
2023-09-23T11:52:46.229Z,16.50
2023-09-23T11:55:12.750Z,16.52
2023-09-23T11:57:41.537Z,16.53
2023-09-23T12:00:09.322Z,16.51
2023-09-23T12:02:35.953Z,16.52
2023-09-23T12:05:02.716Z,16.64
2023-09-23T12:07:29.285Z,16.76
2023-09-23T12:09:55.910Z,16.88
2023-09-23T12:12:22.411Z,16.94
2023-09-23T12:14:50.276Z,16.91
2023-09-23T12:17:16.996Z,16.81
2023-09-23T12:19:43.756Z,16.74
2023-09-23T12:22:10.303Z,16.75
2023-09-23T12:24:36.829Z,16.74
2023-09-23T12:27:03.373Z,16.75
2023-09-23T12:29:29.966Z,16.73
2023-09-23T12:31:57.842Z,16.66
2023-09-23T12:34:24.446Z,16.57
2023-09-23T12:36:51.055Z,16.44
2023-09-23T12:39:17.645Z,16.40
2023-09-23T12:41:44.290Z,16.38
2023-09-23T12:44:10.838Z,16.35
2023-09-23T12:46:37.370Z,16.37
2023-09-23T12:49:05.420Z,16.43
2023-09-23T12:51:31.934Z,16.51
2023-09-23T12:53:58.739Z,16.59
2023-09-23T12:56:25.430Z,16.64
2023-09-23T12:58:52.003Z,16.71
2023-09-23T13:01:18.622Z,16.77
2023-09-23T13:03:45.277Z,16.83
2023-09-23T13:06:13.422Z,16.86
2023-09-23T13:08:40.173Z,16.90
2023-09-23T13:11:06.818Z,16.94
2023-09-23T13:13:33.391Z,16.98
2023-09-23T13:15:59.961Z,16.97
2023-09-23T13:18:26.514Z,16.93
2023-09-23T13:20:53.147Z,16.87
2023-09-23T13:23:21.034Z,16.79
2023-09-23T13:25:47.585Z,16.67
2023-09-23T13:28:14.198Z,16.58
2023-09-23T13:30:40.818Z,16.50
2023-09-23T13:33:07.495Z,16.45
2023-09-23T13:35:34.157Z,16.44
2023-09-23T13:38:00.801Z,16.56
2023-09-23T13:40:28.816Z,16.59
2023-09-23T13:42:55.354Z,16.42
2023-09-23T13:45:21.940Z,16.25
2023-09-23T13:47:48.619Z,15.96
2023-09-23T13:50:15.337Z,15.85
2023-09-23T13:52:41.885Z,15.83
2023-09-23T13:55:09.436Z,15.66
2023-09-23T13:57:38.262Z,15.53
2023-09-23T14:00:05.988Z,15.48
2023-09-23T14:02:33.350Z,15.48
2023-09-23T14:05:00.146Z,15.46
2023-09-23T14:07:26.762Z,15.45
2023-09-23T14:09:53.364Z,15.47
2023-09-23T14:12:21.801Z,15.47
2023-09-23T14:14:49.683Z,15.48
2023-09-23T14:17:16.288Z,15.47
2023-09-23T14:19:42.887Z,15.47
2023-09-23T14:22:09.405Z,15.50
2023-09-23T14:24:35.940Z,15.49
2023-09-23T14:27:02.461Z,15.50
2023-09-23T14:29:29.075Z,15.45
2023-09-23T14:31:56.936Z,15.47
2023-09-23T14:34:23.655Z,15.48
2023-09-23T14:36:50.319Z,15.49
2023-09-23T14:39:16.947Z,15.50
2023-09-23T14:41:43.592Z,15.56
2023-09-23T14:44:10.180Z,15.64
2023-09-23T14:46:36.743Z,15.71
2023-09-23T14:49:04.660Z,15.78
2023-09-23T14:51:31.438Z,15.86
2023-09-23T14:53:58.021Z,15.90
2023-09-23T14:56:24.610Z,15.91
2023-09-23T14:58:51.206Z,15.93
2023-09-23T15:01:17.859Z,15.94
2023-09-23T15:03:44.588Z,15.98
2023-09-23T15:06:12.573Z,16.03
2023-09-23T15:08:53.630Z,16.06
2023-09-23T15:11:24.763Z,16.05
2023-09-23T15:13:51.317Z,16.06
2023-09-23T15:16:17.886Z,16.06
2023-09-23T15:18:44.592Z,16.10
2023-09-23T15:21:12.508Z,16.13
2023-09-23T15:23:39.159Z,16.15
2023-09-23T15:26:05.728Z,16.16
2023-09-23T15:28:32.587Z,16.12
2023-09-23T15:30:59.136Z,16.11
2023-09-23T15:33:25.693Z,16.12
2023-09-23T15:35:52.352Z,16.11
2023-09-23T15:38:20.243Z,16.12
2023-09-23T15:40:46.815Z,16.11
2023-09-23T15:43:13.431Z,16.09
2023-09-23T15:45:41.214Z,16.08
2023-09-23T15:48:08.095Z,16.08
2023-09-23T15:50:34.782Z,16.07
2023-09-23T15:53:01.332Z,16.07
2023-09-23T15:55:29.340Z,16.08
2023-09-23T15:57:56.000Z,16.08
2023-09-23T16:00:22.991Z,16.10
2023-09-23T16:02:49.619Z,16.10
2023-09-23T16:05:16.747Z,16.11
2023-09-23T16:07:43.409Z,16.12
2023-09-23T16:10:10.200Z,16.11
2023-09-23T16:12:38.083Z,16.11
2023-09-23T16:15:05.151Z,16.12
2023-09-23T16:17:31.989Z,16.13
2023-09-23T16:19:58.562Z,16.14
2023-09-23T16:22:25.173Z,16.15
2023-09-23T16:24:51.775Z,16.13
2023-09-23T16:27:18.266Z,16.14
2023-09-23T16:29:46.197Z,16.17
2023-09-23T16:32:12.772Z,16.18
2023-09-23T16:34:39.854Z,16.22
2023-09-23T16:37:07.421Z,16.24
2023-09-23T16:39:34.013Z,16.26
2023-09-23T16:42:00.598Z,16.27
2023-09-23T16:44:27.246Z,16.27
2023-09-23T16:46:55.277Z,16.28
2023-09-23T16:49:21.861Z,16.22
2023-09-23T16:51:48.363Z,16.18
2023-09-23T16:54:14.868Z,16.14
2023-09-23T16:56:41.607Z,16.08
2023-09-23T16:59:08.168Z,16.02
2023-09-23T17:01:34.858Z,15.96
2023-09-23T17:04:03.019Z,15.89
2023-09-23T17:06:29.576Z,15.81
2023-09-23T17:08:56.073Z,15.75
2023-09-23T17:11:22.700Z,15.68
2023-09-23T17:13:49.262Z,15.61
2023-09-23T17:16:15.784Z,15.54
2023-09-23T17:18:42.378Z,15.46
2023-09-23T17:21:10.248Z,15.44
2023-09-23T17:23:36.834Z,15.36
2023-09-23T17:26:03.503Z,15.28
2023-09-23T17:28:30.206Z,15.21
2023-09-23T17:30:56.771Z,15.15
2023-09-23T17:33:23.434Z,15.05
2023-09-23T17:35:56.018Z,14.98
2023-09-23T17:38:23.982Z,14.89
2023-09-23T17:40:50.641Z,14.83
2023-09-23T17:43:17.196Z,14.78
2023-09-23T17:45:43.746Z,14.70
2023-09-23T17:48:10.311Z,14.62
2023-09-23T17:50:36.953Z,14.54
2023-09-23T17:53:03.796Z,14.51
2023-09-23T17:55:31.700Z,14.42
2023-09-23T17:57:58.184Z,14.37
2023-09-23T18:00:24.771Z,14.32
2023-09-23T18:02:51.573Z,14.27
2023-09-23T18:05:18.365Z,14.16
2023-09-23T18:07:47.224Z,14.09
2023-09-23T18:10:13.770Z,14.03
2023-09-23T18:12:41.679Z,13.97
2023-09-23T18:15:09.566Z,13.91
2023-09-23T18:17:36.252Z,13.83
2023-09-23T18:20:03.000Z,13.78
2023-09-23T18:22:29.602Z,13.73
2023-09-23T18:24:56.153Z,13.72
2023-09-23T18:27:22.694Z,13.70
2023-09-23T18:29:51.425Z,13.67
2023-09-23T18:32:18.116Z,13.64
2023-09-23T18:34:44.828Z,13.59
2023-09-23T18:37:11.457Z,13.53
2023-09-23T18:39:38.084Z,13.49
2023-09-23T18:42:04.956Z,13.44
2023-09-23T18:44:31.505Z,13.41
2023-09-23T18:46:59.518Z,13.36
2023-09-23T18:49:26.096Z,13.33
2023-09-23T18:51:52.792Z,13.31
2023-09-23T18:54:19.342Z,13.26
2023-09-23T18:56:45.897Z,13.22
2023-09-23T18:59:12.425Z,13.19
2023-09-23T19:01:39.077Z,13.15
2023-09-23T19:04:07.306Z,13.15
2023-09-23T19:06:34.468Z,13.11
2023-09-23T19:09:01.115Z,13.06
2023-09-23T19:11:27.802Z,13.03
2023-09-23T19:13:54.296Z,13.01
2023-09-23T19:16:20.849Z,12.98
2023-09-23T19:18:47.345Z,13.00
2023-09-23T19:21:15.149Z,12.98
2023-09-23T19:23:41.736Z,12.97
2023-09-23T19:26:08.336Z,12.94
2023-09-23T19:28:34.914Z,12.92
2023-09-23T19:31:01.434Z,12.91
2023-09-23T19:33:28.016Z,12.88
2023-09-23T19:35:54.666Z,12.86
2023-09-23T19:38:22.704Z,12.83
2023-09-23T19:40:49.256Z,12.81
2023-09-23T19:43:15.818Z,12.79
2023-09-23T19:45:42.284Z,12.77
2023-09-23T19:48:08.962Z,12.76
2023-09-23T19:50:36.090Z,12.74
2023-09-23T19:53:02.678Z,12.71
2023-09-23T19:55:30.555Z,12.67
2023-09-23T19:57:57.093Z,12.65
2023-09-23T20:00:23.631Z,12.62
2023-09-23T20:02:50.506Z,12.59
2023-09-23T20:05:17.185Z,12.57
2023-09-23T20:07:43.706Z,12.52
2023-09-23T20:10:10.480Z,12.49
2023-09-23T20:12:38.558Z,12.44
2023-09-23T20:15:06.360Z,12.42
2023-09-23T20:17:33.141Z,12.39
2023-09-23T20:19:59.779Z,12.39
2023-09-23T20:22:26.402Z,12.37
2023-09-23T20:24:53.002Z,12.36
2023-09-23T20:27:19.607Z,12.36
2023-09-23T20:30:03.791Z,12.38
2023-09-23T20:32:33.456Z,12.36
2023-09-23T20:35:00.065Z,12.37
2023-09-23T20:37:26.603Z,12.37
2023-09-23T20:39:53.922Z,12.36
2023-09-23T20:42:20.452Z,12.35
2023-09-23T20:44:48.328Z,12.34
2023-09-23T20:47:14.884Z,12.33
2023-09-23T20:49:41.396Z,12.32
2023-09-23T20:52:07.898Z,12.32
2023-09-23T20:54:34.380Z,12.29
2023-09-23T20:57:00.899Z,12.24
2023-09-23T20:59:27.535Z,12.21
2023-09-23T21:01:55.450Z,12.20
2023-09-23T21:04:22.046Z,12.20
2023-09-23T21:06:48.670Z,12.18
2023-09-23T21:09:15.161Z,12.16
2023-09-23T21:11:41.787Z,12.17
2023-09-23T21:14:08.305Z,12.15
2023-09-23T21:16:34.910Z,12.13
2023-09-23T21:19:02.842Z,12.12
2023-09-23T21:21:29.428Z,12.11
2023-09-23T21:23:56.039Z,12.12
2023-09-23T21:26:22.843Z,12.09
2023-09-23T21:28:49.706Z,12.05
2023-09-23T21:31:17.416Z,11.99
2023-09-23T21:33:44.062Z,11.95
2023-09-23T21:36:12.051Z,11.92
2023-09-23T21:38:38.591Z,11.85
2023-09-23T21:41:05.154Z,11.83
2023-09-23T21:43:31.666Z,11.80
2023-09-23T21:45:58.313Z,11.77
2023-09-23T21:48:25.070Z,11.77
2023-09-23T21:50:59.008Z,11.76
2023-09-23T21:53:28.012Z,11.71
2023-09-23T21:55:56.857Z,11.67
2023-09-23T21:58:23.331Z,11.66
2023-09-23T22:00:49.983Z,11.64
2023-09-23T22:03:16.828Z,11.63
2023-09-23T22:05:43.494Z,11.61
2023-09-23T22:08:10.072Z,11.58
2023-09-23T22:10:37.958Z,11.54
2023-09-23T22:13:04.893Z,11.51
2023-09-23T22:15:31.499Z,11.49
2023-09-23T22:17:58.063Z,11.47
2023-09-23T22:20:24.642Z,11.45
2023-09-23T22:22:51.286Z,11.42
2023-09-23T22:25:17.801Z,11.42
2023-09-23T22:27:45.654Z,11.42
2023-09-23T22:30:12.539Z,11.38
2023-09-23T22:32:39.167Z,11.36
2023-09-23T22:35:06.490Z,11.32
2023-09-23T22:37:33.020Z,11.28
2023-09-23T22:40:02.920Z,11.22
2023-09-23T22:42:29.996Z,11.18
2023-09-23T22:44:57.924Z,11.16
2023-09-23T22:47:24.571Z,11.17
2023-09-23T22:49:51.304Z,11.16
2023-09-23T22:52:17.820Z,11.15
2023-09-23T22:54:44.329Z,11.11
2023-09-23T22:57:10.837Z,11.07
2023-09-23T22:59:37.386Z,11.06
2023-09-23T23:02:05.325Z,11.04
2023-09-23T23:04:31.914Z,11.03
2023-09-23T23:06:58.749Z,11.00
2023-09-23T23:09:25.313Z,10.98
2023-09-23T23:11:51.924Z,10.94
2023-09-23T23:14:18.516Z,10.94
2023-09-23T23:16:45.019Z,10.93
2023-09-23T23:19:12.869Z,10.90
2023-09-23T23:21:39.401Z,10.87
2023-09-23T23:24:06.565Z,10.84
2023-09-23T23:26:33.140Z,10.85
2023-09-23T23:28:59.599Z,10.84
2023-09-23T23:31:26.192Z,10.84
2023-09-23T23:33:52.722Z,10.83
2023-09-23T23:36:20.563Z,10.85
2023-09-23T23:38:47.073Z,10.88
2023-09-23T23:41:13.548Z,10.90
2023-09-23T23:43:40.028Z,10.91
2023-09-23T23:46:06.564Z,10.92
2023-09-23T23:48:33.516Z,10.91
2023-09-23T23:51:04.165Z,10.90
2023-09-23T23:53:32.605Z,10.89
2023-09-23T23:55:59.859Z,10.87
2023-09-23T23:58:26.412Z,10.87
